createdAt,value
2023-11-11T00:01:19.207Z,84.58
2023-11-11T00:03:49.128Z,84.62
2023-11-11T00:06:17.370Z,84.76
2023-11-11T00:08:45.309Z,84.48
2023-11-11T00:11:13.479Z,84.43
2023-11-11T00:13:41.389Z,84.51
2023-11-11T00:16:09.465Z,84.47
2023-11-11T00:18:38.244Z,84.15
2023-11-11T00:21:06.409Z,83.68
2023-11-11T00:23:38.857Z,83.91
2023-11-11T00:26:07.392Z,83.97
2023-11-11T00:28:41.487Z,84.19
2023-11-11T00:31:12.158Z,84.30
2023-11-11T00:33:41.352Z,84.18
2023-11-11T00:36:10.766Z,84.29
2023-11-11T00:38:39.242Z,84.28
2023-11-11T00:41:07.032Z,84.21
2023-11-11T00:43:34.875Z,84.37
2023-11-11T00:46:03.252Z,84.39
2023-11-11T00:48:32.465Z,84.23
2023-11-11T00:51:00.422Z,84.78
2023-11-11T00:53:28.878Z,84.23
2023-11-11T00:55:58.533Z,84.32
2023-11-11T00:58:26.874Z,84.52
2023-11-11T01:00:55.450Z,84.33
2023-11-11T01:03:24.195Z,84.25
2023-11-11T01:05:52.339Z,84.51
2023-11-11T01:08:20.967Z,84.48
2023-11-11T01:10:51.302Z,84.66
2023-11-11T01:13:20.481Z,84.76
2023-11-11T01:15:50.942Z,84.95
2023-11-11T01:18:18.872Z,84.94
2023-11-11T01:20:46.908Z,85.25
2023-11-11T01:23:15.584Z,85.45
2023-11-11T01:25:43.829Z,85.79
2023-11-11T01:28:12.427Z,85.68
2023-11-11T01:30:40.884Z,85.62
2023-11-11T01:33:08.916Z,85.64
2023-11-11T01:35:36.994Z,85.58
2023-11-11T01:38:06.092Z,85.75
2023-11-11T01:40:34.008Z,85.80
2023-11-11T01:43:01.845Z,85.82
2023-11-11T01:45:30.785Z,85.93
2023-11-11T01:47:59.383Z,86.20
2023-11-11T01:50:28.009Z,86.44
2023-11-11T01:52:56.413Z,86.48
2023-11-11T01:55:25.796Z,86.23
2023-11-11T01:57:53.655Z,87.02
2023-11-11T02:00:22.905Z,87.14
2023-11-11T02:02:50.957Z,87.32
2023-11-11T02:05:21.190Z,87.32
2023-11-11T02:07:49.680Z,86.62
2023-11-11T02:10:19.016Z,86.67
2023-11-11T02:12:47.078Z,86.86
2023-11-11T02:15:16.813Z,87.01
2023-11-11T02:17:45.189Z,86.73
2023-11-11T02:20:15.899Z,86.50
2023-11-11T02:22:44.461Z,86.80
2023-11-11T02:25:12.462Z,87.27
2023-11-11T02:27:40.380Z,86.99
2023-11-11T02:30:13.283Z,87.34
2023-11-11T02:32:42.398Z,87.18
2023-11-11T02:35:10.639Z,87.29
2023-11-11T02:37:38.799Z,87.38
2023-11-11T02:40:10.269Z,87.43
2023-11-11T02:42:39.002Z,87.22
2023-11-11T02:45:07.829Z,87.20
2023-11-11T02:47:36.510Z,87.79
2023-11-11T02:50:05.251Z,88.11
2023-11-11T02:52:33.252Z,88.06
2023-11-11T02:55:01.036Z,88.06
2023-11-11T02:57:30.037Z,88.10
2023-11-11T02:59:58.781Z,88.53
2023-11-11T03:02:26.861Z,88.62
2023-11-11T03:04:55.462Z,89.18
2023-11-11T03:07:23.505Z,89.57
2023-11-11T03:09:51.372Z,89.42
2023-11-11T03:12:19.880Z,89.36
2023-11-11T03:14:48.032Z,89.43
2023-11-11T03:17:17.511Z,89.55
2023-11-11T03:19:46.102Z,89.49
2023-11-11T03:22:13.949Z,89.18
2023-11-11T03:24:42.373Z,88.88
2023-11-11T03:27:11.821Z,88.63
2023-11-11T03:29:39.732Z,88.31
2023-11-11T03:32:08.514Z,88.63
2023-11-11T03:34:36.855Z,88.74
2023-11-11T03:37:05.063Z,88.52
2023-11-11T03:39:33.060Z,88.12
2023-11-11T03:42:01.487Z,87.94
2023-11-11T03:44:29.691Z,88.00
2023-11-11T03:46:57.518Z,87.95
2023-11-11T03:49:26.326Z,88.29
2023-11-11T03:51:54.311Z,88.93
2023-11-11T03:54:23.458Z,89.50
2023-11-11T03:56:52.066Z,89.81
2023-11-11T03:59:20.249Z,90.39
2023-11-11T04:01:48.776Z,90.68
2023-11-11T04:04:17.266Z,90.55
2023-11-11T04:06:45.350Z,90.19
2023-11-11T04:09:14.388Z,89.63
2023-11-11T04:11:43.300Z,89.59
2023-11-11T04:14:11.460Z,89.69
2023-11-11T04:16:39.535Z,89.44
2023-11-11T04:19:09.429Z,89.09
2023-11-11T04:21:37.644Z,89.05
2023-11-11T04:24:06.560Z,89.01
2023-11-11T04:26:35.084Z,89.19
2023-11-11T04:29:02.927Z,88.91
2023-11-11T04:31:30.992Z,89.10
2023-11-11T04:33:59.994Z,89.42
2023-11-11T04:36:28.375Z,89.03
2023-11-11T04:38:56.445Z,88.56
2023-11-11T04:41:27.701Z,88.77
2023-11-11T04:43:58.295Z,88.66
2023-11-11T04:46:26.810Z,88.88
2023-11-11T04:48:54.999Z,89.25
2023-11-11T04:51:23.175Z,89.00
2023-11-11T04:53:51.416Z,88.92
2023-11-11T04:56:21.103Z,88.99
2023-11-11T04:58:49.433Z,88.91
2023-11-11T05:01:18.315Z,88.85
2023-11-11T05:03:47.273Z,88.77
2023-11-11T05:06:18.439Z,88.90
2023-11-11T05:08:47.530Z,88.49
2023-11-11T05:11:15.473Z,88.56
2023-11-11T05:13:45.606Z,88.74
2023-11-11T05:16:36.804Z,88.86
2023-11-11T05:19:05.517Z,89.22
2023-11-11T05:21:34.381Z,89.22
2023-11-11T05:24:02.749Z,89.51
2023-11-11T05:26:32.388Z,89.59
2023-11-11T05:29:02.399Z,89.62
2023-11-11T05:31:32.244Z,89.11
2023-11-11T05:34:00.606Z,89.33
2023-11-11T05:36:29.138Z,89.62
2023-11-11T05:38:56.925Z,89.51
2023-11-11T05:41:24.912Z,89.86
2023-11-11T05:43:53.073Z,90.22
2023-11-11T05:46:21.937Z,90.23
2023-11-11T05:48:50.434Z,90.52
2023-11-11T05:51:18.979Z,91.32
2023-11-11T05:53:46.816Z,91.31
2023-11-11T05:56:16.993Z,91.30
2023-11-11T05:58:45.345Z,90.87
2023-11-11T06:01:13.298Z,91.01
2023-11-11T06:03:41.856Z,91.30
2023-11-11T06:06:10.376Z,91.16
2023-11-11T06:08:38.200Z,91.29
2023-11-11T06:11:07.194Z,91.33
2023-11-11T06:13:35.380Z,91.07
2023-11-11T06:16:03.605Z,90.92
2023-11-11T06:18:31.577Z,90.91
2023-11-11T06:21:01.055Z,91.07
2023-11-11T06:26:00.429Z,91.41
2023-11-11T06:28:28.310Z,91.41
2023-11-11T06:30:56.445Z,91.38
2023-11-11T06:33:25.283Z,91.43
2023-11-11T06:35:53.150Z,91.14
2023-11-11T06:38:21.045Z,91.55
2023-11-11T06:40:49.452Z,91.52
2023-11-11T06:43:18.332Z,91.42
2023-11-11T06:45:46.777Z,91.35
2023-11-11T06:48:17.505Z,91.74
2023-11-11T06:50:45.656Z,91.90
2023-11-11T06:53:13.530Z,91.51
2023-11-11T06:55:41.981Z,91.48
2023-11-11T06:58:09.797Z,91.06
2023-11-11T07:00:37.586Z,91.01
2023-11-11T07:03:06.172Z,90.60
2023-11-11T07:05:34.121Z,90.50
2023-11-11T07:08:02.449Z,90.21
2023-11-11T07:10:34.889Z,90.39
2023-11-11T07:13:02.853Z,90.63
2023-11-11T07:15:30.942Z,90.40
2023-11-11T07:17:59.067Z,90.22
2023-11-11T07:20:31.608Z,90.28
2023-11-11T07:23:00.899Z,89.97
2023-11-11T07:25:29.495Z,90.28
2023-11-11T07:27:57.335Z,90.47
2023-11-11T07:30:25.859Z,90.34
2023-11-11T07:33:00.043Z,90.65
2023-11-11T07:35:30.990Z,90.61
2023-11-11T07:37:58.944Z,90.50
2023-11-11T07:40:27.165Z,90.60
2023-11-11T07:42:57.965Z,90.31
2023-11-11T07:45:28.155Z,89.89
2023-11-11T07:47:56.398Z,89.47
2023-11-11T07:50:24.851Z,89.66
2023-11-11T07:52:56.373Z,89.97
2023-11-11T07:55:24.859Z,89.49
2023-11-11T08:00:25.846Z,89.34
2023-11-11T08:02:54.498Z,89.34
2023-11-11T08:05:29.404Z,89.36
2023-11-11T08:08:11.487Z,89.37
2023-11-11T08:10:50.733Z,88.92
2023-11-11T08:13:19.675Z,88.68
2023-11-11T08:15:47.983Z,87.87
2023-11-11T08:18:16.193Z,88.23
2023-11-11T08:20:45.307Z,87.85
2023-11-11T08:23:15.525Z,87.78
2023-11-11T08:25:43.607Z,87.57
2023-11-11T08:28:12.056Z,87.35
2023-11-11T08:30:42.331Z,87.44
2023-11-11T08:33:11.835Z,87.50
2023-11-11T08:35:39.886Z,87.27
2023-11-11T08:38:07.780Z,87.29
2023-11-11T08:40:36.007Z,87.00
2023-11-11T08:43:05.718Z,86.73
2023-11-11T08:45:33.635Z,86.54
2023-11-11T08:48:02.565Z,86.38
2023-11-11T08:50:30.966Z,86.49
2023-11-11T08:53:01.027Z,86.29
2023-11-11T08:55:29.044Z,85.84
2023-11-11T08:57:57.374Z,85.56
2023-11-11T09:00:27.054Z,85.07
2023-11-11T09:02:56.283Z,85.02
2023-11-11T09:05:24.715Z,84.91
2023-11-11T09:07:52.540Z,85.24
2023-11-11T09:10:21.673Z,84.89
2023-11-11T09:12:50.027Z,84.80
2023-11-11T09:15:18.693Z,84.50
2023-11-11T09:17:46.927Z,84.32
2023-11-11T09:20:15.730Z,83.82
2023-11-11T09:22:43.555Z,83.65
2023-11-11T09:25:11.734Z,83.44
2023-11-11T09:27:40.973Z,83.44
2023-11-11T09:30:12.793Z,83.16
2023-11-11T09:32:40.997Z,82.72
2023-11-11T09:35:15.190Z,82.69
2023-11-11T09:37:43.190Z,82.71
2023-11-11T09:40:12.660Z,82.60
2023-11-11T09:42:42.418Z,82.73
2023-11-11T09:47:46.102Z,82.31
2023-11-11T09:50:21.140Z,81.93
2023-11-11T09:52:52.780Z,81.62
2023-11-11T09:57:50.027Z,81.18
2023-11-11T10:00:18.490Z,81.12
2023-11-11T10:02:46.831Z,80.69
2023-11-11T10:05:16.238Z,80.44
2023-11-11T10:07:44.709Z,80.40
2023-11-11T10:10:13.591Z,79.95
2023-11-11T10:12:41.855Z,79.97
2023-11-11T10:15:12.153Z,79.69
2023-11-11T10:17:41.838Z,79.72
2023-11-11T10:20:17.647Z,79.41
2023-11-11T10:22:47.721Z,79.16
2023-11-11T10:25:21.157Z,78.84
2023-11-11T10:27:56.450Z,78.72
2023-11-11T10:30:26.536Z,78.48
2023-11-11T10:32:56.064Z,78.41
2023-11-11T10:35:26.250Z,77.99
2023-11-11T10:37:55.340Z,77.65
2023-11-11T10:40:24.256Z,77.60
2023-11-11T10:42:52.281Z,77.36
2023-11-11T10:45:20.469Z,76.97
2023-11-11T10:47:49.484Z,76.88
2023-11-11T10:50:18.527Z,76.43
2023-11-11T10:52:48.161Z,76.09
2023-11-11T10:55:17.115Z,75.80
2023-11-11T10:57:45.872Z,75.85
2023-11-11T11:00:25.864Z,76.08
2023-11-11T11:02:55.960Z,75.65
2023-11-11T11:05:32.044Z,74.98
2023-11-11T11:08:08.411Z,75.21
2023-11-11T11:10:49.874Z,75.14
2023-11-11T11:13:19.931Z,75.03
2023-11-11T11:15:47.978Z,74.81
2023-11-11T11:18:23.927Z,74.53
2023-11-11T11:20:55.611Z,74.48
2023-11-11T11:23:24.419Z,74.23
2023-11-11T11:25:52.614Z,73.91
2023-11-11T11:28:23.978Z,73.84
2023-11-11T11:30:59.612Z,73.74
2023-11-11T11:33:29.915Z,73.25
2023-11-11T11:36:05.809Z,73.12
2023-11-11T11:38:34.963Z,72.93
2023-11-11T11:41:14.258Z,72.79
2023-11-11T11:43:43.439Z,72.34
2023-11-11T11:46:12.107Z,72.37
2023-11-11T11:48:42.088Z,72.13
2023-11-11T11:51:11.171Z,71.71
2023-11-11T11:53:44.040Z,71.52
2023-11-11T11:56:29.336Z,71.46
2023-11-11T11:58:59.783Z,71.36
2023-11-11T12:01:32.845Z,70.81
2023-11-11T12:04:01.936Z,70.39
2023-11-11T12:06:30.505Z,70.28
2023-11-11T12:09:01.188Z,70.33
2023-11-11T12:11:32.270Z,70.39
2023-11-11T12:14:14.684Z,70.33
2023-11-11T12:16:44.685Z,69.85
2023-11-11T12:19:15.122Z,69.61
2023-11-11T12:21:46.309Z,69.64
2023-11-11T12:24:16.286Z,69.36
2023-11-11T12:26:48.744Z,69.16
2023-11-11T12:29:17.277Z,68.84
2023-11-11T12:31:53.312Z,68.67
2023-11-11T12:34:24.118Z,68.31
2023-11-11T12:36:53.894Z,67.97
2023-11-11T12:39:26.585Z,67.69
2023-11-11T12:41:57.928Z,67.28
2023-11-11T12:44:27.583Z,67.13
2023-11-11T12:47:00.800Z,66.84
2023-11-11T12:49:30.137Z,66.72
2023-11-11T12:52:00.656Z,66.44
2023-11-11T12:54:33.280Z,66.13
2023-11-11T12:57:03.363Z,65.91
2023-11-11T12:59:31.747Z,65.65
2023-11-11T13:02:07.192Z,65.59
2023-11-11T13:04:36.104Z,65.23
2023-11-11T13:07:22.603Z,64.95
2023-11-11T13:09:51.416Z,64.73
2023-11-11T13:12:21.552Z,64.61
2023-11-11T13:14:51.940Z,64.13
2023-11-11T13:17:28.048Z,64.14
2023-11-11T13:19:59.418Z,63.88
2023-11-11T13:22:30.065Z,63.69
2023-11-11T13:24:58.134Z,63.52
2023-11-11T13:27:26.201Z,63.07
2023-11-11T13:29:54.340Z,62.80
2023-11-11T13:32:23.190Z,62.83
2023-11-11T13:34:51.174Z,62.80
2023-11-11T13:37:27.123Z,62.61
2023-11-11T13:40:01.823Z,62.25
2023-11-11T13:42:31.558Z,62.19
2023-11-11T13:45:00.128Z,61.98
2023-11-11T13:47:28.070Z,61.56
2023-11-11T13:49:56.267Z,61.44
2023-11-11T13:52:24.183Z,61.36
2023-11-11T13:54:52.393Z,61.23
2023-11-11T13:57:21.991Z,61.15
2023-11-11T13:59:50.415Z,60.99
2023-11-11T14:02:18.881Z,61.38
2023-11-11T14:04:47.658Z,61.37
2023-11-11T14:07:15.772Z,61.48
2023-11-11T14:09:43.715Z,61.42
2023-11-11T14:12:14.283Z,61.71
2023-11-11T14:14:43.559Z,61.80
2023-11-11T14:17:11.791Z,62.03
2023-11-11T14:19:40.601Z,62.07
2023-11-11T14:22:08.645Z,62.13
2023-11-11T14:24:38.968Z,62.23
2023-11-11T14:27:08.564Z,62.31
2023-11-11T14:29:36.678Z,62.64
2023-11-11T14:32:06.510Z,62.71
2023-11-11T14:34:35.522Z,62.89
2023-11-11T14:37:03.722Z,63.10
2023-11-11T14:39:31.545Z,63.18
2023-11-11T14:42:00.296Z,63.16
2023-11-11T14:44:28.157Z,63.35
2023-11-11T14:46:56.502Z,63.53
2023-11-11T14:49:25.885Z,63.87
2023-11-11T14:51:56.420Z,64.22
2023-11-11T14:54:25.444Z,64.50
2023-11-11T14:56:53.618Z,64.71
2023-11-11T14:59:21.461Z,64.78
2023-11-11T15:01:51.912Z,65.15
2023-11-11T15:04:21.576Z,65.58
2023-11-11T15:06:49.543Z,66.10
2023-11-11T15:09:22.695Z,66.17
2023-11-11T15:11:50.953Z,66.49
2023-11-11T15:14:18.881Z,66.72
2023-11-11T15:16:47.298Z,67.24
2023-11-11T15:19:15.660Z,67.62
2023-11-11T15:21:46.765Z,67.91
2023-11-11T15:24:17.166Z,68.05
2023-11-11T15:26:46.349Z,68.49
2023-11-11T15:29:14.209Z,68.74
2023-11-11T15:31:42.660Z,69.27
2023-11-11T15:34:10.886Z,69.57
2023-11-11T15:36:39.446Z,70.10
2023-11-11T15:39:16.306Z,70.31
2023-11-11T15:41:44.392Z,70.68
2023-11-11T15:44:12.510Z,70.80
2023-11-11T15:46:40.485Z,71.20
2023-11-11T15:49:08.995Z,71.73
2023-11-11T15:51:37.482Z,71.88
2023-11-11T15:54:06.184Z,72.30
2023-11-11T15:56:34.158Z,72.55
2023-11-11T15:59:02.219Z,72.82
2023-11-11T16:01:30.724Z,73.02
2023-11-11T16:03:58.733Z,73.33
2023-11-11T16:06:27.849Z,73.61
2023-11-11T16:08:55.619Z,73.79
2023-11-11T16:11:23.747Z,73.90
2023-11-11T16:13:51.841Z,74.21
2023-11-11T16:16:20.896Z,74.38
2023-11-11T16:18:50.317Z,74.79
2023-11-11T16:21:20.494Z,75.00
2023-11-11T16:23:49.768Z,75.13
2023-11-11T16:26:20.131Z,75.42
2023-11-11T16:28:51.746Z,75.55
2023-11-11T16:31:21.808Z,75.78
2023-11-11T16:33:49.876Z,76.09
2023-11-11T16:36:18.011Z,76.03
2023-11-11T16:38:46.168Z,76.21
2023-11-11T16:41:15.556Z,76.26
2023-11-11T16:43:43.831Z,76.52
2023-11-11T16:46:12.001Z,76.64
2023-11-11T16:48:40.920Z,76.70
2023-11-11T16:51:09.041Z,76.75
2023-11-11T16:53:40.710Z,77.18
2023-11-11T16:56:08.935Z,77.41
2023-11-11T16:58:37.814Z,77.67
2023-11-11T17:01:09.251Z,77.83
2023-11-11T17:03:38.939Z,77.98
2023-11-11T17:06:10.976Z,78.08
2023-11-11T17:08:39.653Z,78.13
2023-11-11T17:11:10.238Z,78.46
2023-11-11T17:13:43.103Z,78.59
2023-11-11T17:16:11.317Z,78.49
2023-11-11T17:18:39.493Z,78.50
2023-11-11T17:21:08.604Z,78.47
2023-11-11T17:23:36.526Z,78.46
2023-11-11T17:26:04.693Z,78.67
2023-11-11T17:28:32.758Z,78.97
2023-11-11T17:31:01.039Z,79.10
2023-11-11T17:33:37.768Z,79.42
2023-11-11T17:36:09.470Z,79.34
2023-11-11T17:38:42.672Z,81.45
2023-11-11T17:41:13.648Z,81.30
2023-11-11T17:43:44.831Z,81.40
2023-11-11T17:46:24.169Z,81.49
2023-11-11T17:48:52.174Z,81.19
2023-11-11T17:51:20.667Z,81.52
2023-11-11T17:53:48.823Z,81.79
2023-11-11T17:56:30.538Z,81.86
2023-11-11T17:58:58.732Z,82.06
2023-11-11T18:01:35.999Z,82.21
2023-11-11T18:04:05.144Z,82.09
2023-11-11T18:06:33.072Z,82.31
2023-11-11T18:09:01.415Z,82.32
2023-11-11T18:11:29.354Z,82.68
2023-11-11T18:13:57.483Z,83.20
2023-11-11T18:16:26.905Z,83.18
2023-11-11T18:18:55.163Z,83.22
2023-11-11T18:21:25.170Z,83.50
2023-11-11T18:23:54.764Z,83.17
2023-11-11T18:26:22.935Z,83.02
2023-11-11T18:28:53.991Z,83.45
2023-11-11T18:31:21.893Z,83.74
2023-11-11T18:33:50.214Z,83.76
2023-11-11T18:36:21.617Z,84.06
2023-11-11T18:38:49.487Z,84.26
2023-11-11T18:41:18.231Z,83.99
2023-11-11T18:43:46.258Z,83.95
2023-11-11T18:46:16.519Z,83.96
2023-11-11T18:48:44.707Z,84.09
2023-11-11T18:51:12.833Z,84.30
2023-11-11T18:53:41.017Z,84.23
2023-11-11T18:56:09.170Z,84.23
2023-11-11T18:58:37.680Z,84.37
2023-11-11T19:01:06.147Z,84.20
2023-11-11T19:03:34.638Z,84.55
2023-11-11T19:06:02.873Z,85.00
2023-11-11T19:08:32.507Z,85.11
2023-11-11T19:11:00.672Z,85.19
2023-11-11T19:13:28.647Z,85.76
2023-11-11T19:15:56.797Z,86.01
2023-11-11T19:18:25.028Z,85.96
2023-11-11T19:20:53.052Z,85.78
2023-11-11T19:23:22.200Z,86.34
2023-11-11T19:25:50.874Z,86.47
2023-11-11T19:28:18.994Z,87.22
2023-11-11T19:30:47.023Z,87.23
2023-11-11T19:33:15.387Z,87.20
2023-11-11T19:35:43.382Z,87.30
2023-11-11T19:38:11.309Z,87.35
2023-11-11T19:40:41.286Z,88.02
2023-11-11T19:43:09.495Z,88.11
2023-11-11T19:45:37.430Z,88.26
2023-11-11T19:48:06.310Z,88.38
2023-11-11T19:50:34.542Z,88.47
2023-11-11T19:53:02.706Z,88.45
2023-11-11T19:55:31.076Z,89.40
2023-11-11T19:57:59.175Z,89.41
2023-11-11T20:00:27.111Z,89.85
2023-11-11T20:02:55.157Z,90.28
2023-11-11T20:05:25.877Z,90.96
2023-11-11T20:07:54.341Z,91.45
2023-11-11T20:10:23.616Z,91.78
2023-11-11T20:12:55.310Z,92.30
2023-11-11T20:15:23.304Z,92.79
2023-11-11T20:17:51.847Z,93.11
2023-11-11T20:20:20.404Z,93.20
2023-11-11T20:22:48.567Z,93.61
2023-11-11T20:25:19.098Z,93.94
2023-11-11T20:27:47.470Z,93.75
2023-11-11T20:30:15.396Z,94.00
2023-11-11T20:32:43.513Z,94.70
2023-11-11T20:35:13.208Z,94.58
2023-11-11T20:37:41.523Z,95.06
2023-11-11T20:40:16.073Z,95.41
2023-11-11T20:42:45.527Z,95.76
2023-11-11T20:45:14.038Z,95.98
2023-11-11T20:47:42.203Z,96.21
2023-11-11T20:50:12.141Z,96.43
2023-11-11T20:52:40.134Z,96.43
2023-11-11T20:55:09.113Z,96.25
2023-11-11T20:57:37.903Z,96.61
2023-11-11T21:00:07.448Z,97.03
2023-11-11T21:02:36.467Z,97.24
2023-11-11T21:05:05.735Z,97.06
2023-11-11T21:07:35.239Z,97.23
2023-11-11T21:10:03.957Z,97.70
2023-11-11T21:12:32.047Z,97.63
2023-11-11T21:14:59.869Z,97.77
2023-11-11T21:17:29.176Z,97.36
2023-11-11T21:19:58.349Z,97.89
2023-11-11T21:22:26.687Z,97.96
2023-11-11T21:24:54.676Z,98.22
2023-11-11T21:27:23.264Z,97.87
2023-11-11T21:29:51.119Z,98.00
2023-11-11T21:32:19.296Z,97.91
2023-11-11T21:34:47.602Z,98.20
2023-11-11T21:37:15.445Z,98.53
2023-11-11T21:39:46.361Z,98.49
2023-11-11T21:42:14.745Z,98.50
2023-11-11T21:44:42.641Z,98.48
2023-11-11T21:47:11.124Z,99.12
2023-11-11T21:49:39.539Z,99.31
2023-11-11T21:52:07.486Z,99.21
2023-11-11T21:54:35.645Z,98.81
2023-11-11T21:57:04.285Z,99.28
2023-11-11T21:59:35.176Z,99.12
2023-11-11T22:02:03.815Z,99.33
2023-11-11T22:04:32.547Z,99.69
2023-11-11T22:07:00.348Z,99.73
2023-11-11T22:09:28.370Z,100.00
2023-11-11T22:11:57.405Z,100.00
2023-11-11T22:14:26.752Z,99.97
2023-11-11T22:16:55.105Z,100.00
2023-11-11T22:19:23.218Z,100.00
2023-11-11T22:21:53.351Z,100.00
2023-11-11T22:24:21.355Z,100.00
2023-11-11T22:26:51.242Z,100.00
2023-11-11T22:29:19.983Z,100.00
2023-11-11T22:31:48.565Z,100.00
2023-11-11T22:34:17.954Z,100.00
2023-11-11T22:36:45.939Z,100.00
2023-11-11T22:39:14.592Z,100.00
2023-11-11T22:41:43.975Z,100.00
2023-11-11T22:44:12.101Z,100.00
2023-11-11T22:46:40.263Z,100.00
2023-11-11T22:49:09.073Z,100.00
2023-11-11T22:51:37.512Z,100.00
2023-11-11T22:54:06.288Z,100.00
2023-11-11T22:56:34.315Z,100.00
2023-11-11T22:59:02.306Z,100.00
2023-11-11T23:01:32.522Z,100.00
2023-11-11T23:04:00.773Z,100.00
2023-11-11T23:06:29.280Z,100.00
2023-11-11T23:08:59.445Z,100.00
2023-11-11T23:11:29.866Z,100.00
2023-11-11T23:13:57.989Z,100.00
2023-11-11T23:16:26.278Z,100.00
2023-11-11T23:18:54.794Z,100.00
2023-11-11T23:21:24.445Z,100.00
2023-11-11T23:23:52.931Z,100.00
2023-11-11T23:26:21.195Z,100.00
2023-11-11T23:28:49.875Z,100.00
2023-11-11T23:31:19.266Z,100.00
2023-11-11T23:33:47.357Z,100.00
2023-11-11T23:36:16.591Z,100.00
2023-11-11T23:38:44.492Z,100.00
2023-11-11T23:41:12.693Z,100.00
2023-11-11T23:43:40.904Z,100.00
2023-11-11T23:46:08.865Z,100.00
2023-11-11T23:48:37.762Z,100.00
2023-11-11T23:51:08.717Z,100.00
2023-11-11T23:53:37.543Z,100.00
2023-11-11T23:56:06.336Z,100.00
2023-11-11T23:58:34.405Z,100.00
